AFR1032 LFPG-LGAV
Flight info
| Callsign | AFR1032 |
|---|---|
| Flight time | N/A |
| Altitude | 35000 |
| Route | BUBLI DCT LUVAL DCT BEGAR DCT TRA DCT GAMSA DCT GEDSO DCT VEKEN DCT DARZA DCT ELTIB DCT GACMO DCT ENFAR DCT TALAS UN130 TSL DCT SIGFO UM749 ROPOX |
| Aircraft | A21N/M-SDE3FGHIRWY/LB1 |
Departure
| Time | N/A |
|---|---|
| Airport | Charles de Gaulle International Airport (LFPG) |
Arrival
| Time | 2026-05-06 19:58 |
|---|---|
| Airport | Athens Eleftherios Venizelos International Airport (LGAV) |
| Time | Latitude | Longitude | Altitude | Speed | Heading |
|---|---|---|---|---|---|
| 2026-05-06 17:55 | 47.39407 | 9.75177 | 34867 ft | 463 kts | 108° |
| 2026-05-06 17:55 | 47.38805 | 9.79565 | 34866 ft | 462 kts | 108° |
| 2026-05-06 17:56 | 47.37526 | 9.88837 | 34889 ft | 462 kts | 108° |
| 2026-05-06 17:56 | 47.36228 | 9.98146 | 34877 ft | 463 kts | 108° |
| 2026-05-06 17:57 | 47.34921 | 10.07437 | 34875 ft | 463 kts | 108° |
| 2026-05-06 17:57 | 47.33609 | 10.16696 | 34882 ft | 463 kts | 108° |
| 2026-05-06 17:58 | 47.32294 | 10.25934 | 34890 ft | 462 kts | 108° |
| 2026-05-06 17:58 | 47.30961 | 10.35214 | 34886 ft | 463 kts | 108° |
| 2026-05-06 17:59 | 47.29629 | 10.44443 | 34880 ft | 464 kts | 108° |
| 2026-05-06 17:59 | 47.28286 | 10.53689 | 34874 ft | 464 kts | 108° |
| 2026-05-06 18:00 | 47.26932 | 10.62962 | 34888 ft | 464 kts | 108° |
| 2026-05-06 18:00 | 47.25569 | 10.72245 | 34912 ft | 463 kts | 109° |
| 2026-05-06 18:01 | 47.24204 | 10.81498 | 34918 ft | 462 kts | 109° |
| 2026-05-06 18:01 | 47.22827 | 10.90744 | 34918 ft | 464 kts | 109° |
| 2026-05-06 18:02 | 47.21452 | 10.99921 | 34916 ft | 463 kts | 109° |
| 2026-05-06 18:02 | 47.20054 | 11.09221 | 34920 ft | 463 kts | 109° |
| 2026-05-06 18:03 | 47.18664 | 11.18402 | 34913 ft | 464 kts | 109° |
| 2026-05-06 18:03 | 47.17265 | 11.27618 | 34920 ft | 463 kts | 109° |
| 2026-05-06 18:04 | 47.15845 | 11.36870 | 34913 ft | 464 kts | 109° |
| 2026-05-06 18:04 | 47.14427 | 11.46090 | 34917 ft | 464 kts | 109° |
| 2026-05-06 18:05 | 47.12997 | 11.55344 | 34922 ft | 464 kts | 109° |
| 2026-05-06 18:05 | 47.11564 | 11.64549 | 34918 ft | 464 kts | 109° |
| 2026-05-06 18:06 | 47.10116 | 11.73803 | 34914 ft | 464 kts | 110° |
| 2026-05-06 18:06 | 47.08578 | 11.82941 | 34911 ft | 460 kts | 113° |
| 2026-05-06 18:07 | 47.06423 | 11.91675 | 34909 ft | 454 kts | 121° |
| 2026-05-06 18:07 | 47.03701 | 11.99980 | 34914 ft | 454 kts | 123° |
| 2026-05-06 18:08 | 47.00904 | 12.08280 | 34912 ft | 454 kts | 123° |
| 2026-05-06 18:08 | 46.98108 | 12.16583 | 34902 ft | 455 kts | 123° |
| 2026-05-06 18:09 | 46.95328 | 12.24832 | 34903 ft | 454 kts | 123° |
| 2026-05-06 18:09 | 46.92525 | 12.33122 | 34899 ft | 454 kts | 123° |
| 2026-05-06 18:10 | 46.89733 | 12.41352 | 34915 ft | 454 kts | 123° |
| 2026-05-06 18:10 | 46.86911 | 12.49648 | 34934 ft | 454 kts | 123° |
| 2026-05-06 18:11 | 46.84279 | 12.57359 | 34934 ft | 455 kts | 123° |
| 2026-05-06 18:11 | 46.81503 | 12.65475 | 34922 ft | 455 kts | 124° |
| 2026-05-06 18:12 | 46.78684 | 12.73693 | 34905 ft | 455 kts | 124° |
| 2026-05-06 18:12 | 46.75863 | 12.81885 | 34901 ft | 454 kts | 124° |
| 2026-05-06 18:13 | 46.73018 | 12.90115 | 34920 ft | 454 kts | 124° |
| 2026-05-06 18:13 | 46.70181 | 12.98298 | 34926 ft | 455 kts | 124° |
| 2026-05-06 18:14 | 46.67313 | 13.06558 | 34913 ft | 455 kts | 124° |
| 2026-05-06 18:14 | 46.64455 | 13.14758 | 34908 ft | 455 kts | 123° |
| 2026-05-06 18:15 | 46.61593 | 13.22948 | 34908 ft | 456 kts | 123° |
| 2026-05-06 18:15 | 46.58683 | 13.31113 | 34905 ft | 453 kts | 126° |
| 2026-05-06 18:16 | 46.55312 | 13.38747 | 34906 ft | 448 kts | 133° |
| 2026-05-06 18:16 | 46.51387 | 13.45659 | 34902 ft | 443 kts | 139° |
| 2026-05-06 18:17 | 46.47188 | 13.52195 | 34901 ft | 445 kts | 139° |
| 2026-05-06 18:17 | 46.42988 | 13.58725 | 34893 ft | 445 kts | 139° |
| 2026-05-06 18:18 | 46.38774 | 13.65282 | 34885 ft | 446 kts | 140° |
| 2026-05-06 18:18 | 46.34591 | 13.71775 | 34887 ft | 445 kts | 140° |
| 2026-05-06 18:19 | 46.30456 | 13.78175 | 34891 ft | 445 kts | 139° |
| 2026-05-06 18:19 | 46.26230 | 13.84707 | 34884 ft | 445 kts | 139° |
| 2026-05-06 18:20 | 46.22016 | 13.91204 | 34881 ft | 444 kts | 139° |
| 2026-05-06 18:20 | 46.17792 | 13.97701 | 34880 ft | 445 kts | 139° |
| 2026-05-06 18:21 | 46.13536 | 14.04232 | 34904 ft | 445 kts | 139° |
| 2026-05-06 18:21 | 46.09305 | 14.10708 | 34893 ft | 446 kts | 139° |
| 2026-05-06 18:22 | 46.05060 | 14.17189 | 34886 ft | 445 kts | 139° |
| 2026-05-06 18:22 | 46.00808 | 14.23668 | 34895 ft | 446 kts | 139° |
| 2026-05-06 18:23 | 45.96562 | 14.30120 | 34893 ft | 445 kts | 139° |
| 2026-05-06 18:23 | 45.92313 | 14.36561 | 34902 ft | 446 kts | 138° |
| 2026-05-06 18:24 | 45.88059 | 14.42995 | 34903 ft | 446 kts | 138° |
| 2026-05-06 18:24 | 45.83762 | 14.49480 | 34896 ft | 446 kts | 138° |
| 2026-05-06 18:25 | 45.79507 | 14.55883 | 34906 ft | 446 kts | 138° |
| 2026-05-06 18:25 | 45.75245 | 14.62287 | 34909 ft | 447 kts | 138° |
| 2026-05-06 18:26 | 45.70956 | 14.68713 | 34917 ft | 446 kts | 139° |
| 2026-05-06 18:26 | 45.66655 | 14.75142 | 34908 ft | 447 kts | 139° |
| 2026-05-06 18:27 | 45.62349 | 14.81567 | 34911 ft | 446 kts | 139° |
| 2026-05-06 18:27 | 45.58083 | 14.87921 | 34912 ft | 446 kts | 139° |
| 2026-05-06 18:28 | 45.53776 | 14.94314 | 34911 ft | 446 kts | 139° |
| 2026-05-06 18:28 | 45.49484 | 15.00671 | 34907 ft | 446 kts | 139° |
| 2026-05-06 18:29 | 45.45270 | 15.07186 | 34902 ft | 447 kts | 137° |
| 2026-05-06 18:29 | 45.41089 | 15.13761 | 34903 ft | 448 kts | 137° |
| 2026-05-06 18:30 | 45.36931 | 15.20263 | 34905 ft | 448 kts | 137° |
| 2026-05-06 18:30 | 45.32724 | 15.26819 | 34900 ft | 448 kts | 138° |
| 2026-05-06 18:31 | 45.28521 | 15.33349 | 34905 ft | 449 kts | 138° |
| 2026-05-06 18:31 | 45.24320 | 15.39855 | 34907 ft | 450 kts | 138° |
| 2026-05-06 18:32 | 45.20095 | 15.46388 | 34907 ft | 449 kts | 138° |
| 2026-05-06 18:32 | 45.15881 | 15.52882 | 34905 ft | 450 kts | 138° |
| 2026-05-06 18:33 | 45.11626 | 15.59427 | 34903 ft | 452 kts | 139° |
| 2026-05-06 18:33 | 45.07381 | 15.65939 | 34911 ft | 452 kts | 139° |
| 2026-05-06 18:34 | 45.03123 | 15.72459 | 34913 ft | 452 kts | 139° |
| 2026-05-06 18:34 | 44.98862 | 15.78970 | 34913 ft | 453 kts | 140° |
| 2026-05-06 18:35 | 44.94577 | 15.85498 | 34915 ft | 453 kts | 140° |
| 2026-05-06 18:35 | 44.90324 | 15.91967 | 34917 ft | 453 kts | 140° |
| 2026-05-06 18:36 | 44.85999 | 15.98524 | 34922 ft | 453 kts | 140° |
| 2026-05-06 18:36 | 44.81729 | 16.04987 | 34930 ft | 452 kts | 140° |
| 2026-05-06 18:37 | 44.77451 | 16.11436 | 34931 ft | 454 kts | 140° |
| 2026-05-06 18:37 | 44.73157 | 16.17907 | 34943 ft | 452 kts | 140° |
| 2026-05-06 18:38 | 44.68859 | 16.24363 | 34949 ft | 453 kts | 140° |
| 2026-05-06 18:38 | 44.64562 | 16.30802 | 34961 ft | 453 kts | 140° |
| 2026-05-06 18:39 | 44.60257 | 16.37245 | 34963 ft | 453 kts | 140° |
| 2026-05-06 18:40 | 44.53808 | 16.46863 | 34966 ft | 453 kts | 140° |
| 2026-05-06 18:40 | 44.49493 | 16.53280 | 34976 ft | 454 kts | 140° |
| 2026-05-06 18:41 | 44.45158 | 16.59717 | 34981 ft | 453 kts | 139° |
| 2026-05-06 18:41 | 44.40847 | 16.66102 | 34988 ft | 454 kts | 140° |
| 2026-05-06 18:42 | 44.36512 | 16.72508 | 34985 ft | 453 kts | 140° |
| 2026-05-06 18:42 | 44.32197 | 16.78873 | 34993 ft | 452 kts | 140° |
| 2026-05-06 18:43 | 44.27909 | 16.85278 | 35000 ft | 456 kts | 139° |
| 2026-05-06 18:43 | 44.23653 | 16.91868 | 35006 ft | 457 kts | 139° |
| 2026-05-06 18:44 | 44.19405 | 16.98428 | 35013 ft | 458 kts | 139° |
| 2026-05-06 18:44 | 44.15151 | 17.04977 | 35018 ft | 458 kts | 139° |
| 2026-05-06 18:45 | 44.10863 | 17.11549 | 35016 ft | 458 kts | 139° |
| 2026-05-06 18:45 | 44.06609 | 17.18061 | 35017 ft | 456 kts | 139° |
| 2026-05-06 18:46 | 44.02332 | 17.24578 | 35020 ft | 459 kts | 139° |
| 2026-05-06 18:46 | 43.98044 | 17.31105 | 35021 ft | 460 kts | 138° |
| 2026-05-06 18:47 | 43.93743 | 17.37640 | 35017 ft | 461 kts | 138° |
| 2026-05-06 18:47 | 43.89392 | 17.44230 | 35018 ft | 464 kts | 138° |
| 2026-05-06 18:48 | 43.85028 | 17.50829 | 35017 ft | 464 kts | 138° |
| 2026-05-06 18:48 | 43.80667 | 17.57411 | 35018 ft | 466 kts | 138° |
| 2026-05-06 18:49 | 43.76283 | 17.64008 | 35017 ft | 466 kts | 138° |
| 2026-05-06 18:49 | 43.71912 | 17.70569 | 35016 ft | 468 kts | 138° |
| 2026-05-06 18:50 | 43.67490 | 17.77191 | 35013 ft | 469 kts | 138° |
| 2026-05-06 18:50 | 43.63073 | 17.83794 | 35017 ft | 470 kts | 138° |
| 2026-05-06 18:51 | 43.58640 | 17.90402 | 35026 ft | 472 kts | 138° |
| 2026-05-06 18:51 | 43.54169 | 17.97058 | 35039 ft | 472 kts | 138° |
| 2026-05-06 18:52 | 43.49718 | 18.03662 | 35048 ft | 474 kts | 138° |
| 2026-05-06 18:52 | 43.45232 | 18.10302 | 35046 ft | 474 kts | 138° |
| 2026-05-06 18:53 | 43.40758 | 18.16912 | 35041 ft | 474 kts | 137° |
| 2026-05-06 18:53 | 43.36258 | 18.23545 | 35041 ft | 474 kts | 137° |
| 2026-05-06 18:54 | 43.31767 | 18.30150 | 35051 ft | 475 kts | 137° |
| 2026-05-06 18:54 | 43.27281 | 18.36736 | 35056 ft | 475 kts | 137° |
| 2026-05-06 18:55 | 43.22774 | 18.43337 | 35064 ft | 474 kts | 137° |
| 2026-05-06 18:55 | 43.18303 | 18.49874 | 35070 ft | 474 kts | 137° |
| 2026-05-06 18:56 | 43.13767 | 18.56486 | 35070 ft | 475 kts | 136° |
| 2026-05-06 18:56 | 43.09309 | 18.63077 | 35074 ft | 475 kts | 136° |
| 2026-05-06 18:57 | 43.04818 | 18.69746 | 35082 ft | 474 kts | 136° |
| 2026-05-06 18:57 | 43.00429 | 18.76243 | 35084 ft | 474 kts | 137° |
| 2026-05-06 18:58 | 42.95965 | 18.82837 | 35088 ft | 474 kts | 136° |
| 2026-05-06 18:58 | 42.91493 | 18.89427 | 35085 ft | 473 kts | 136° |
| 2026-05-06 18:59 | 42.87038 | 18.95972 | 35085 ft | 473 kts | 136° |
| 2026-05-06 18:59 | 42.82570 | 19.02526 | 35088 ft | 473 kts | 136° |
| 2026-05-06 19:00 | 42.78090 | 19.09078 | 35082 ft | 474 kts | 136° |
| 2026-05-06 19:00 | 42.73622 | 19.15606 | 35090 ft | 475 kts | 136° |
| 2026-05-06 19:01 | 42.69109 | 19.22179 | 35091 ft | 475 kts | 136° |
| 2026-05-06 19:01 | 42.64603 | 19.28724 | 35089 ft | 477 kts | 136° |
| 2026-05-06 19:02 | 42.60070 | 19.35297 | 35087 ft | 477 kts | 136° |
| 2026-05-06 19:02 | 42.55556 | 19.41825 | 35086 ft | 478 kts | 136° |
| 2026-05-06 19:03 | 42.50997 | 19.48403 | 35087 ft | 479 kts | 136° |
| 2026-05-06 19:03 | 42.46447 | 19.54959 | 35096 ft | 479 kts | 135° |
| 2026-05-06 19:04 | 42.41866 | 19.61541 | 35093 ft | 480 kts | 136° |
| 2026-05-06 19:04 | 42.37316 | 19.68063 | 35089 ft | 480 kts | 136° |
| 2026-05-06 19:05 | 42.32707 | 19.74653 | 35089 ft | 481 kts | 136° |
| 2026-05-06 19:05 | 42.28132 | 19.81182 | 35082 ft | 480 kts | 136° |
| 2026-05-06 19:06 | 42.23555 | 19.87702 | 35081 ft | 481 kts | 136° |
| 2026-05-06 19:06 | 42.18940 | 19.94253 | 35076 ft | 482 kts | 136° |
| 2026-05-06 19:07 | 42.14318 | 20.00804 | 35074 ft | 483 kts | 135° |
| 2026-05-06 19:07 | 42.09676 | 20.07373 | 35078 ft | 484 kts | 135° |
| 2026-05-06 19:08 | 42.05046 | 20.13910 | 35077 ft | 483 kts | 135° |
| 2026-05-06 19:08 | 42.00422 | 20.20420 | 35078 ft | 483 kts | 136° |
| 2026-05-06 19:09 | 41.95803 | 20.26909 | 35083 ft | 482 kts | 135° |
| 2026-05-06 19:09 | 41.91181 | 20.33392 | 35087 ft | 481 kts | 135° |
| 2026-05-06 19:10 | 41.86520 | 20.39915 | 35091 ft | 482 kts | 135° |
| 2026-05-06 19:10 | 41.81898 | 20.46368 | 35104 ft | 481 kts | 135° |
| 2026-05-06 19:11 | 41.77377 | 20.52969 | 35117 ft | 482 kts | 130° |
| 2026-05-06 19:11 | 41.73441 | 20.60184 | 35118 ft | 483 kts | 123° |
| 2026-05-06 19:12 | 41.69750 | 20.67741 | 35110 ft | 482 kts | 124° |
| 2026-05-06 19:12 | 41.66090 | 20.75228 | 35105 ft | 482 kts | 124° |
| 2026-05-06 19:13 | 41.62426 | 20.82668 | 35100 ft | 481 kts | 124° |
| 2026-05-06 19:13 | 41.58745 | 20.90113 | 35097 ft | 481 kts | 124° |
| 2026-05-06 19:14 | 41.55062 | 20.97541 | 35084 ft | 482 kts | 124° |
| 2026-05-06 19:14 | 41.51363 | 21.04985 | 35082 ft | 482 kts | 124° |
| 2026-05-06 19:15 | 41.47665 | 21.12405 | 35086 ft | 482 kts | 124° |
| 2026-05-06 19:15 | 41.43952 | 21.19840 | 35133 ft | 482 kts | 123° |
| 2026-05-06 19:16 | 41.40242 | 21.27254 | 35026 ft | 482 kts | 123° |
| 2026-05-06 19:16 | 41.36528 | 21.34654 | 35069 ft | 482 kts | 123° |
| 2026-05-06 19:17 | 41.32835 | 21.41998 | 35172 ft | 482 kts | 123° |
| 2026-05-06 19:17 | 41.29092 | 21.49418 | 35092 ft | 482 kts | 123° |
| 2026-05-06 19:18 | 41.25374 | 21.56776 | 35081 ft | 482 kts | 123° |
| 2026-05-06 19:18 | 41.21653 | 21.64122 | 35081 ft | 482 kts | 123° |
| 2026-05-06 19:19 | 41.17886 | 21.71545 | 35081 ft | 483 kts | 124° |
| 2026-05-06 19:19 | 41.14130 | 21.78932 | 35096 ft | 483 kts | 124° |
| 2026-05-06 19:20 | 41.10378 | 21.86287 | 35086 ft | 483 kts | 124° |
| 2026-05-06 19:20 | 41.06538 | 21.93595 | 35079 ft | 483 kts | 127° |
| 2026-05-06 19:21 | 41.02515 | 22.00669 | 35076 ft | 483 kts | 127° |
| 2026-05-06 19:21 | 40.98463 | 22.07762 | 35074 ft | 484 kts | 127° |
| 2026-05-06 19:22 | 40.94402 | 22.14877 | 35078 ft | 484 kts | 127° |
| 2026-05-06 19:22 | 40.90367 | 22.21936 | 35084 ft | 485 kts | 127° |
| 2026-05-06 19:23 | 40.86356 | 22.28934 | 35080 ft | 485 kts | 127° |
| 2026-05-06 19:23 | 40.82297 | 22.36008 | 35062 ft | 485 kts | 127° |
| 2026-05-06 19:24 | 40.78205 | 22.43122 | 35047 ft | 485 kts | 127° |
| 2026-05-06 19:24 | 40.74150 | 22.50134 | 35036 ft | 484 kts | 126° |
| 2026-05-06 19:25 | 40.70049 | 22.57216 | 35031 ft | 485 kts | 127° |
| 2026-05-06 19:25 | 40.65976 | 22.64241 | 35034 ft | 485 kts | 126° |
| 2026-05-06 19:26 | 40.61879 | 22.71297 | 35029 ft | 485 kts | 127° |
| 2026-05-06 19:26 | 40.57787 | 22.78332 | 35027 ft | 485 kts | 127° |
| 2026-05-06 19:27 | 40.53702 | 22.85339 | 35025 ft | 485 kts | 127° |
| 2026-05-06 19:27 | 40.49517 | 22.92229 | 35022 ft | 484 kts | 132° |
| 2026-05-06 19:28 | 40.44505 | 22.98109 | 35023 ft | 482 kts | 145° |
| 2026-05-06 19:28 | 40.38755 | 23.02501 | 35023 ft | 481 kts | 157° |
| 2026-05-06 19:29 | 40.32527 | 23.05694 | 34829 ft | 481 kts | 162° |
| 2026-05-06 19:29 | 40.29383 | 23.07218 | 34412 ft | 479 kts | 161° |
| 2026-05-06 19:29 | 40.26281 | 23.08728 | 34029 ft | 476 kts | 161° |
| 2026-05-06 19:29 | 40.23197 | 23.10240 | 33644 ft | 472 kts | 161° |
| 2026-05-06 19:30 | 40.20147 | 23.11741 | 33264 ft | 472 kts | 161° |
| 2026-05-06 19:30 | 40.17056 | 23.13265 | 32878 ft | 472 kts | 161° |
| 2026-05-06 19:30 | 40.14004 | 23.14771 | 32498 ft | 472 kts | 161° |
| 2026-05-06 19:30 | 40.10953 | 23.16279 | 32118 ft | 472 kts | 161° |
| 2026-05-06 19:31 | 40.07885 | 23.17795 | 31739 ft | 473 kts | 161° |
| 2026-05-06 19:31 | 40.04813 | 23.19310 | 31358 ft | 473 kts | 161° |
| 2026-05-06 19:31 | 39.98666 | 23.22341 | 30601 ft | 474 kts | 161° |
| 2026-05-06 19:32 | 39.95546 | 23.23875 | 30218 ft | 474 kts | 161° |
| 2026-05-06 19:32 | 39.92480 | 23.25384 | 29839 ft | 474 kts | 161° |
| 2026-05-06 19:32 | 39.89432 | 23.26882 | 29467 ft | 475 kts | 161° |
| 2026-05-06 19:32 | 39.86330 | 23.28405 | 29091 ft | 473 kts | 161° |
| 2026-05-06 19:33 | 39.83411 | 23.29836 | 28736 ft | 471 kts | 161° |
| 2026-05-06 19:33 | 39.80335 | 23.31342 | 28361 ft | 468 kts | 161° |
| 2026-05-06 19:33 | 39.77327 | 23.32815 | 27994 ft | 466 kts | 161° |
| 2026-05-06 19:33 | 39.74286 | 23.34302 | 27620 ft | 464 kts | 161° |
| 2026-05-06 19:34 | 39.71271 | 23.35776 | 27248 ft | 461 kts | 161° |
| 2026-05-06 19:34 | 39.68307 | 23.37223 | 26881 ft | 458 kts | 161° |
| 2026-05-06 19:34 | 39.65318 | 23.38681 | 26510 ft | 456 kts | 161° |
| 2026-05-06 19:34 | 39.62352 | 23.40126 | 26142 ft | 453 kts | 161° |
| 2026-05-06 19:35 | 39.59414 | 23.41556 | 25774 ft | 450 kts | 160° |
| 2026-05-06 19:35 | 39.56528 | 23.42961 | 25412 ft | 448 kts | 160° |
| 2026-05-06 19:35 | 39.53611 | 23.44379 | 25043 ft | 446 kts | 160° |
| 2026-05-06 19:35 | 39.50708 | 23.45789 | 24675 ft | 443 kts | 160° |
| 2026-05-06 19:36 | 39.47822 | 23.47189 | 24310 ft | 441 kts | 160° |
| 2026-05-06 19:36 | 39.44946 | 23.48583 | 23947 ft | 439 kts | 160° |
| 2026-05-06 19:36 | 39.42123 | 23.49952 | 23587 ft | 436 kts | 160° |
| 2026-05-06 19:36 | 39.39281 | 23.51327 | 23224 ft | 434 kts | 160° |
| 2026-05-06 19:37 | 39.36472 | 23.52687 | 22880 ft | 431 kts | 160° |
| 2026-05-06 19:37 | 39.33672 | 23.54039 | 22532 ft | 429 kts | 160° |
| 2026-05-06 19:37 | 39.30910 | 23.55375 | 22184 ft | 427 kts | 160° |
| 2026-05-06 19:37 | 39.28134 | 23.56716 | 21840 ft | 425 kts | 160° |
| 2026-05-06 19:38 | 39.25362 | 23.58052 | 21486 ft | 422 kts | 160° |
| 2026-05-06 19:38 | 39.22648 | 23.59358 | 21140 ft | 420 kts | 160° |
| 2026-05-06 19:38 | 39.19927 | 23.60755 | 20792 ft | 418 kts | 156° |
| 2026-05-06 19:38 | 39.17342 | 23.62446 | 20443 ft | 416 kts | 150° |
| 2026-05-06 19:39 | 39.14914 | 23.64455 | 20097 ft | 414 kts | 144° |
| 2026-05-06 19:39 | 39.12574 | 23.66647 | 19752 ft | 412 kts | 143° |
| 2026-05-06 19:39 | 39.10281 | 23.68842 | 19404 ft | 410 kts | 143° |
| 2026-05-06 19:39 | 39.08001 | 23.71024 | 19060 ft | 408 kts | 143° |
| 2026-05-06 19:40 | 39.05743 | 23.73178 | 18717 ft | 405 kts | 143° |
| 2026-05-06 19:40 | 39.03473 | 23.75335 | 18368 ft | 404 kts | 143° |
| 2026-05-06 19:40 | 39.01235 | 23.77455 | 18028 ft | 402 kts | 143° |
| 2026-05-06 19:40 | 38.99011 | 23.79559 | 17698 ft | 396 kts | 143° |
| 2026-05-06 19:41 | 38.96797 | 23.81650 | 17378 ft | 389 kts | 144° |
| 2026-05-06 19:41 | 38.94643 | 23.83682 | 17057 ft | 383 kts | 144° |
| 2026-05-06 19:41 | 38.92528 | 23.85675 | 16745 ft | 378 kts | 144° |
| 2026-05-06 19:41 | 38.90405 | 23.87673 | 16426 ft | 377 kts | 144° |
| 2026-05-06 19:42 | 38.88307 | 23.89645 | 16110 ft | 375 kts | 144° |
| 2026-05-06 19:42 | 38.86180 | 23.91643 | 15783 ft | 373 kts | 144° |
| 2026-05-06 19:42 | 38.84089 | 23.93607 | 15467 ft | 370 kts | 144° |
| 2026-05-06 19:42 | 38.82034 | 23.95536 | 15155 ft | 367 kts | 144° |
| 2026-05-06 19:43 | 38.79989 | 23.97452 | 14835 ft | 365 kts | 143° |
| 2026-05-06 19:43 | 38.77926 | 23.99385 | 14516 ft | 363 kts | 143° |
| 2026-05-06 19:43 | 38.75916 | 24.01267 | 14203 ft | 358 kts | 143° |
| 2026-05-06 19:43 | 38.73911 | 24.03145 | 13900 ft | 351 kts | 143° |
| 2026-05-06 19:44 | 38.71973 | 24.04956 | 13605 ft | 345 kts | 143° |
| 2026-05-06 19:44 | 38.70042 | 24.06761 | 13310 ft | 339 kts | 143° |
| 2026-05-06 19:44 | 38.68166 | 24.08514 | 13016 ft | 333 kts | 143° |
| 2026-05-06 19:44 | 38.66294 | 24.10261 | 12719 ft | 328 kts | 143° |
| 2026-05-06 19:45 | 38.64474 | 24.11959 | 12425 ft | 322 kts | 143° |
| 2026-05-06 19:45 | 38.62693 | 24.13619 | 12133 ft | 317 kts | 143° |
| 2026-05-06 19:45 | 38.60913 | 24.15276 | 11836 ft | 312 kts | 143° |
| 2026-05-06 19:45 | 38.59187 | 24.16884 | 11546 ft | 307 kts | 143° |
| 2026-05-06 19:46 | 38.57469 | 24.18482 | 11252 ft | 304 kts | 143° |
| 2026-05-06 19:46 | 38.55769 | 24.20063 | 10957 ft | 303 kts | 143° |
| 2026-05-06 19:46 | 38.54072 | 24.21641 | 10666 ft | 301 kts | 143° |
| 2026-05-06 19:46 | 38.52363 | 24.23229 | 10369 ft | 300 kts | 143° |
| 2026-05-06 19:47 | 38.50693 | 24.24782 | 10077 ft | 298 kts | 143° |
| 2026-05-06 19:47 | 38.49029 | 24.26326 | 9780 ft | 296 kts | 143° |
| 2026-05-06 19:47 | 38.47366 | 24.27867 | 9476 ft | 294 kts | 143° |
| 2026-05-06 19:47 | 38.45713 | 24.29398 | 9181 ft | 293 kts | 143° |
| 2026-05-06 19:48 | 38.44065 | 24.30895 | 8884 ft | 292 kts | 148° |
| 2026-05-06 19:48 | 38.42155 | 24.31730 | 8559 ft | 289 kts | 178° |
| 2026-05-06 19:48 | 38.40211 | 24.31270 | 8266 ft | 286 kts | 206° |
| 2026-05-06 19:48 | 38.38501 | 24.30025 | 7984 ft | 285 kts | 212° |
| 2026-05-06 19:49 | 38.36803 | 24.28721 | 7683 ft | 284 kts | 212° |
| 2026-05-06 19:49 | 38.35093 | 24.27426 | 7380 ft | 282 kts | 211° |
| 2026-05-06 19:49 | 38.33408 | 24.26168 | 7085 ft | 280 kts | 211° |
| 2026-05-06 19:49 | 38.31744 | 24.24937 | 6813 ft | 275 kts | 211° |
| 2026-05-06 19:50 | 38.30104 | 24.23731 | 6542 ft | 270 kts | 211° |
| 2026-05-06 19:50 | 38.28478 | 24.22538 | 6269 ft | 266 kts | 211° |
| 2026-05-06 19:50 | 38.26889 | 24.21374 | 6000 ft | 261 kts | 211° |
| 2026-05-06 19:50 | 38.25337 | 24.20237 | 5731 ft | 257 kts | 210° |
| 2026-05-06 19:51 | 38.23800 | 24.19114 | 5458 ft | 253 kts | 210° |
| 2026-05-06 19:51 | 38.22284 | 24.18006 | 5188 ft | 249 kts | 210° |
| 2026-05-06 19:51 | 38.20783 | 24.16910 | 4916 ft | 246 kts | 210° |
| 2026-05-06 19:51 | 38.19268 | 24.15937 | 4640 ft | 243 kts | 201° |
| 2026-05-06 19:52 | 38.17663 | 24.15238 | 4371 ft | 243 kts | 198° |
| 2026-05-06 19:52 | 38.16087 | 24.14464 | 4100 ft | 241 kts | 207° |
| 2026-05-06 19:52 | 38.14662 | 24.13382 | 3830 ft | 238 kts | 215° |
| 2026-05-06 19:52 | 38.13360 | 24.12132 | 3567 ft | 235 kts | 218° |
| 2026-05-06 19:53 | 38.12082 | 24.10855 | 3298 ft | 232 kts | 217° |
| 2026-05-06 19:53 | 38.10806 | 24.09603 | 3035 ft | 228 kts | 217° |
| 2026-05-06 19:53 | 38.09570 | 24.08414 | 2955 ft | 216 kts | 217° |
| 2026-05-06 19:53 | 38.08382 | 24.07286 | 2950 ft | 212 kts | 216° |
| 2026-05-06 19:54 | 38.07209 | 24.06178 | 2944 ft | 204 kts | 216° |
| 2026-05-06 19:54 | 38.06143 | 24.05171 | 3005 ft | 185 kts | 216° |
| 2026-05-06 19:54 | 38.05112 | 24.04196 | 2837 ft | 182 kts | 217° |
| 2026-05-06 19:54 | 38.04105 | 24.03243 | 2622 ft | 182 kts | 217° |
| 2026-05-06 19:55 | 38.03101 | 24.02292 | 2370 ft | 175 kts | 217° |
| 2026-05-06 19:55 | 38.02162 | 24.01402 | 2117 ft | 162 kts | 217° |
| 2026-05-06 19:55 | 38.01279 | 24.00564 | 1908 ft | 157 kts | 217° |
| 2026-05-06 19:55 | 38.00408 | 23.99738 | 1721 ft | 155 kts | 217° |
| 2026-05-06 19:56 | 37.99552 | 23.98924 | 1546 ft | 150 kts | 217° |
| 2026-05-06 19:56 | 37.98723 | 23.98137 | 1332 ft | 147 kts | 217° |
| 2026-05-06 19:56 | 37.97914 | 23.97369 | 1130 ft | 146 kts | 217° |
| 2026-05-06 19:56 | 37.97092 | 23.96591 | 913 ft | 146 kts | 217° |
| 2026-05-06 19:57 | 37.96285 | 23.95829 | 716 ft | 145 kts | 217° |
| 2026-05-06 19:57 | 37.95477 | 23.95061 | 525 ft | 145 kts | 218° |
| 2026-05-06 19:57 | 37.94668 | 23.94285 | 338 ft | 145 kts | 218° |
| 2026-05-06 19:57 | 37.93926 | 23.93577 | 317 ft | 113 kts | 217° |
| 2026-05-06 19:58 | 37.93433 | 23.93109 | 317 ft | 65 kts | 217° |
| 2026-05-06 19:58 | 37.93160 | 23.92870 | 317 ft | 24 kts | 202° |
| 2026-05-06 19:58 | 37.93013 | 23.92829 | 317 ft | 18 kts | 187° |
| 2026-05-06 19:58 | 37.92915 | 23.92815 | 317 ft | 13 kts | 186° |
| 2026-05-06 19:59 | 37.92889 | 23.92810 | 317 ft | 0 kts | 191° |
| 2026-05-06 19:59 | 37.92880 | 23.92807 | 317 ft | 2 kts | 191° |
| 2026-05-06 19:59 | 37.92858 | 23.92802 | 317 ft | 4 kts | 189° |
| 2026-05-06 19:59 | 37.92822 | 23.92793 | 317 ft | 7 kts | 195° |
| 2026-05-06 20:00 | 37.92765 | 23.92754 | 317 ft | 10 kts | 216° |
| 2026-05-06 20:00 | 37.92703 | 23.92696 | 317 ft | 11 kts | 218° |
| 2026-05-06 20:00 | 37.92636 | 23.92629 | 317 ft | 12 kts | 218° |
| 2026-05-06 20:00 | 37.92601 | 23.92602 | 317 ft | 5 kts | 201° |
| 2026-05-06 20:01 | 37.92565 | 23.92614 | 317 ft | 6 kts | 134° |
| 2026-05-06 20:01 | 37.92548 | 23.92666 | 317 ft | 7 kts | 89° |
| 2026-05-06 20:01 | 37.92578 | 23.92716 | 317 ft | 7 kts | 35° |
| 2026-05-06 20:01 | 37.92628 | 23.92760 | 317 ft | 10 kts | 36° |
| 2026-05-06 20:02 | 37.92691 | 23.92822 | 317 ft | 12 kts | 39° |
| 2026-05-06 20:02 | 37.92765 | 23.92894 | 317 ft | 14 kts | 37° |
| 2026-05-06 20:02 | 37.92851 | 23.92975 | 317 ft | 16 kts | 37° |
| 2026-05-06 20:02 | 37.92946 | 23.93063 | 317 ft | 17 kts | 36° |
| 2026-05-06 20:03 | 37.93047 | 23.93158 | 317 ft | 18 kts | 37° |
| 2026-05-06 20:03 | 37.93150 | 23.93257 | 317 ft | 18 kts | 37° |
| 2026-05-06 20:03 | 37.93252 | 23.93353 | 317 ft | 17 kts | 36° |
| 2026-05-06 20:03 | 37.93350 | 23.93446 | 317 ft | 17 kts | 41° |
| 2026-05-06 20:04 | 37.93349 | 23.93575 | 317 ft | 16 kts | 126° |
| 2026-05-06 20:04 | 37.93277 | 23.93692 | 317 ft | 16 kts | 127° |
| 2026-05-06 20:04 | 37.93208 | 23.93808 | 317 ft | 16 kts | 126° |
| 2026-05-06 20:04 | 37.93139 | 23.93925 | 317 ft | 16 kts | 127° |
| 2026-05-06 20:05 | 37.93100 | 23.94050 | 317 ft | 15 kts | 59° |
| 2026-05-06 20:05 | 37.93185 | 23.94136 | 317 ft | 15 kts | 36° |
| 2026-05-06 20:05 | 37.93270 | 23.94218 | 317 ft | 15 kts | 51° |
| 2026-05-06 20:05 | 37.93256 | 23.94337 | 317 ft | 15 kts | 127° |
| 2026-05-06 20:06 | 37.93193 | 23.94443 | 317 ft | 15 kts | 127° |
| 2026-05-06 20:06 | 37.93167 | 23.94556 | 317 ft | 14 kts | 50° |
| 2026-05-06 20:06 | 37.93248 | 23.94634 | 317 ft | 14 kts | 37° |
| 2026-05-06 20:06 | 37.93320 | 23.94700 | 317 ft | 11 kts | 35° |
| 2026-05-06 20:07 | 37.93357 | 23.94736 | 317 ft | 2 kts | 21° |
| 2026-05-06 20:07 | 37.93377 | 23.94720 | 317 ft | 4 kts | 307° |
| 2026-05-06 20:07 | 37.93397 | 23.94686 | 317 ft | 5 kts | 308° |
| 2026-05-06 20:07 | 37.93411 | 23.94663 | 317 ft | 1 kts | 306° |